Time;durP1;ratioP1;P1;durP2;ratioP2;P2;SDS_P1;SDS_P2;PMS_P1;PMS_P2;Temp;Humidity;BMP_temperature;BMP_pressure;BME280_temperature;BME280_humidity;BME280_pressure;Samples;Min_cycle;Max_cycle;Signal;HPM_P1;HPM_P2
2024/02/16 00:01:58;;;;;;;16.02;4.22;;;;;;;;;;5023489;28;20021;-78
2024/02/16 00:04:24;;;;;;;;;;;;;;;;;;5023609;28;20029;-78
2024/02/16 00:06:51;;;;;;;16.67;4.47;;;;;;;;;;5009689;28;19942;-80
2024/02/16 00:09:17;;;;;;;17.40;4.60;;;;;;;;;;5009477;28;20037;-80
2024/02/16 00:11:44;;;;;;;;;;;;;;;;;;5019794;28;20024;-80
2024/02/16 00:14:10;;;;;;;16.65;4.20;;;;;;;;;;5024275;28;20521;-78
2024/02/16 00:16:37;;;;;;;;;;;;;;;;;;5002764;28;20051;-78
2024/02/16 00:19:03;;;;;;;15.05;4.15;;;;;;;;;;5014258;28;19917;-79
2024/02/16 00:21:31;;;;;;;;;;;;;;;;;;5005618;28;20123;-79
2024/02/16 00:23:57;;;;;;;;;;;;;;;;;;5009322;28;20152;-80
2024/02/16 00:26:23;;;;;;;15.60;4.30;;;;;;;;;;5001736;28;20533;-78
2024/02/16 00:28:49;;;;;;;;;;;;;;;;;;5005053;28;20029;-78
2024/02/16 00:31:15;;;;;;;14.68;4.32;;;;;;;;;;5005871;28;19924;-79
2024/02/16 00:33:41;;;;;;;16.80;4.70;;;;;;;;;;5019608;28;20040;-79
2024/02/16 00:36:09;;;;;;;;;;;;;;;;;;5023288;28;20021;-79
2024/02/16 00:38:36;;;;;;;14.15;3.53;;;;;;;;;;5005480;28;19923;-78
2024/02/16 00:41:02;;;;;;;;;;;;;;;;;;5001910;28;20025;-78
2024/02/16 00:43:28;;;;;;;15.75;4.25;;;;;;;;;;5017685;28;19968;-78
2024/02/16 00:45:55;;;;;;;12.23;3.55;;;;;;;;;;5002752;28;20202;-80
2024/02/16 00:48:22;;;;;;;15.25;4.43;;;;;;;;;;5007254;28;20550;-78
2024/02/16 00:50:48;;;;;;;15.27;4.13;;;;;;;;;;5000231;28;20516;-80
2024/02/16 00:53:14;;;;;;;;;;;;;;;;;;5021482;28;20244;-78
2024/02/16 00:55:41;;;;;;;16.33;4.90;;;;;;;;;;5023339;28;20627;-78
2024/02/16 00:58:07;;;;;;;18.90;5.18;;;;;;;;;;4996204;28;20035;-77
2024/02/16 01:00:35;;;;;;;;;;;;;;;;;;5002723;28;20106;-78
2024/02/16 01:03:03;;;;;;;14.18;4.25;;;;;;;;;;5006464;28;19943;-78
2024/02/16 01:05:29;;;;;;;16.25;4.78;;;;;;;;;;5010416;28;20032;-78
2024/02/16 01:07:57;;;;;;;14.95;3.97;;;;;;;;;;5021341;28;20044;-78
2024/02/16 01:10:24;;;;;;;18.30;4.80;;;;;;;;;;5010244;28;20028;-78
2024/02/16 01:12:51;;;;;;;;;;;;;;;;;;5020949;28;20043;-78
2024/02/16 01:15:18;;;;;;;15.85;4.50;;;;;;;;;;5003027;28;19916;-78
2024/02/16 01:17:44;;;;;;;15.52;4.43;;;;;;;;;;5004382;28;20028;-78
2024/02/16 01:20:13;;;;;;;;;;;;;;;;;;5020584;28;20029;-78
2024/02/16 01:22:40;;;;;;;20.08;5.63;;;;;;;;;;5015927;28;19913;-79
2024/02/16 01:25:08;;;;;;;14.68;4.78;;;;;;;;;;5017565;28;20061;-78
2024/02/16 01:27:35;;;;;;;14.90;5.75;;;;;;;;;;5001246;28;20781;-80
2024/02/16 01:30:03;;;;;;;16.40;6.30;;;;;;;;;;4991647;28;20059;-79
2024/02/16 01:32:29;;;;;;;20.55;6.18;;;;;;;;;;5008410;28;20033;-79
2024/02/16 01:34:55;;;;;;;19.10;6.00;;;;;;;;;;5011028;28;20126;-78
2024/02/16 01:37:21;;;;;;;18.83;6.53;;;;;;;;;;5012254;28;20032;-79
2024/02/16 01:39:47;;;;;;;20.15;6.78;;;;;;;;;;5023438;28;20052;-78
2024/02/16 01:42:15;;;;;;;16.77;6.38;;;;;;;;;;5033429;28;21000;-79
2024/02/16 01:44:41;;;;;;;18.83;6.10;;;;;;;;;;5014985;28;20104;-79
2024/02/16 01:47:07;;;;;;;18.58;5.65;;;;;;;;;;5031089;28;20144;-79
2024/02/16 01:49:33;;;;;;;;;;;;;;;;;;5005942;28;20041;-79
2024/02/16 01:51:59;;;;;;;17.30;5.55;;;;;;;;;;5005234;28;19970;-79
2024/02/16 01:54:26;;;;;;;16.42;4.75;;;;;;;;;;5008060;28;20029;-79
2024/02/16 01:56:54;;;;;;;17.10;5.25;;;;;;;;;;5004288;28;20037;-80
2024/02/16 01:59:20;;;;;;;17.90;5.53;;;;;;;;;;5010172;28;20036;-79
2024/02/16 02:01:46;;;;;;;18.27;4.88;;;;;;;;;;5004047;28;20035;-79
2024/02/16 02:04:12;;;;;;;20.27;5.15;;;;;;;;;;5022330;28;20025;-78
2024/02/16 02:06:39;;;;;;;;;;;;;;;;;;5003628;28;20591;-79
2024/02/16 02:09:05;;;;;;;16.07;4.83;;;;;;;;;;5007613;28;19913;-80
2024/02/16 02:11:31;;;;;;;16.45;4.32;;;;;;;;;;5019759;28;20036;-80
2024/02/16 02:13:57;;;;;;;14.18;4.47;;;;;;;;;;5024641;28;20915;-80
2024/02/16 02:16:26;;;;;;;;;;;;;;;;;;5026664;28;20119;-80
2024/02/16 02:18:52;;;;;;;14.38;4.43;;;;;;;;;;5011446;28;19913;-80
2024/02/16 02:21:20;;;;;;;16.35;4.45;;;;;;;;;;5014774;28;20556;-80
2024/02/16 02:23:47;;;;;;;14.90;4.53;;;;;;;;;;5006918;28;20437;-80
2024/02/16 02:26:17;;;;;;;15.05;4.20;;;;;;;;;;5010112;28;20558;-79
2024/02/16 02:28:43;;;;;;;15.10;4.47;;;;;;;;;;5009971;28;20025;-80
2024/02/16 02:31:09;;;;;;;17.50;5.18;;;;;;;;;;5008794;28;20479;-80
2024/02/16 02:33:35;;;;;;;16.85;4.90;;;;;;;;;;5007573;28;20033;-80
2024/02/16 02:36:01;;;;;;;;;;;;;;;;;;5022167;28;20053;-80
2024/02/16 02:38:27;;;;;;;12.35;3.88;;;;;;;;;;5009468;28;20001;-80
2024/02/16 02:40:53;;;;;;;;;;;;;;;;;;5021551;28;20782;-80
2024/02/16 02:43:23;;;;;;;16.57;3.90;;;;;;;;;;5020638;28;19920;-80
2024/02/16 02:45:49;;;;;;;15.05;3.85;;;;;;;;;;4995808;28;20031;-80
2024/02/16 02:48:15;;;;;;;16.70;4.35;;;;;;;;;;5011102;28;20033;-80
2024/02/16 02:50:41;;;;;;;;;;;;;;;;;;5004138;28;20060;-80
2024/02/16 02:53:07;;;;;;;14.68;4.05;;;;;;;;;;5009274;28;20479;-79
2024/02/16 02:55:34;;;;;;;12.43;3.13;;;;;;;;;;5020309;28;20033;-80
2024/02/16 02:58:00;;;;;;;18.45;3.95;;;;;;;;;;5012499;28;20513;-80
2024/02/16 03:00:26;;;;;;;14.43;3.55;;;;;;;;;;5028353;28;20607;-80
2024/02/16 03:02:53;;;;;;;14.00;3.42;;;;;;;;;;5003467;28;20099;-80
2024/02/16 03:05:20;;;;;;;14.23;3.70;;;;;;;;;;5020444;28;20029;-80
2024/02/16 03:07:46;;;;;;;14.93;3.60;;;;;;;;;;5003852;28;20044;-80
2024/02/16 03:10:14;;;;;;;14.65;3.92;;;;;;;;;;5022777;28;20132;-80
2024/02/16 03:12:40;;;;;;;15.55;3.88;;;;;;;;;;5024693;28;20130;-80
2024/02/16 03:15:08;;;;;;;14.95;3.63;;;;;;;;;;5029006;28;20028;-80
2024/02/16 03:17:34;;;;;;;14.38;3.40;;;;;;;;;;5011254;28;20036;-79
2024/02/16 03:20:00;;;;;;;14.98;3.50;;;;;;;;;;5003433;28;20041;-79
2024/02/16 03:22:27;;;;;;;15.25;3.63;;;;;;;;;;5021783;28;20429;-80
2024/02/16 03:24:53;;;;;;;14.20;3.78;;;;;;;;;;5019281;28;20025;-79
2024/02/16 03:27:19;;;;;;;16.50;4.00;;;;;;;;;;5024594;28;20033;-79
2024/02/16 03:29:45;;;;;;;14.98;3.85;;;;;;;;;;5006887;28;20032;-78
2024/02/16 03:32:12;;;;;;;14.63;3.67;;;;;;;;;;5005044;28;20034;-79
2024/02/16 03:34:38;;;;;;;14.35;3.35;;;;;;;;;;5014580;28;20033;-79
2024/02/16 03:37:05;;;;;;;15.05;3.63;;;;;;;;;;5021694;28;20051;-79
2024/02/16 03:39:31;;;;;;;15.77;3.88;;;;;;;;;;4999365;28;20296;-79
2024/02/16 03:41:57;;;;;;;14.48;3.72;;;;;;;;;;5000963;28;20041;-79
2024/02/16 03:44:24;;;;;;;13.25;3.88;;;;;;;;;;5003542;28;20048;-79
2024/02/16 03:46:50;;;;;;;14.32;3.53;;;;;;;;;;4984482;28;20038;-79
2024/02/16 03:49:17;;;;;;;13.88;3.47;;;;;;;;;;4999380;28;20064;-79
2024/02/16 03:51:43;;;;;;;15.68;3.50;;;;;;;;;;4996890;28;20475;-79
2024/02/16 03:54:09;;;;;;;17.92;4.13;;;;;;;;;;4999133;28;20068;-79
2024/02/16 03:56:35;;;;;;;15.43;3.90;;;;;;;;;;5002734;28;20044;-79
2024/02/16 03:59:03;;;;;;;15.13;3.80;;;;;;;;;;5005026;28;20025;-80
2024/02/16 04:01:30;;;;;;;13.68;3.50;;;;;;;;;;5010743;28;20025;-81
2024/02/16 04:03:57;;;;;;;13.65;3.53;;;;;;;;;;5008660;28;20022;-80
2024/02/16 04:06:23;;;;;;;15.32;4.13;;;;;;;;;;5000329;28;20466;-80
2024/02/16 04:08:52;;;;;;;16.05;3.70;;;;;;;;;;5008681;28;21039;-81
2024/02/16 04:11:18;;;;;;;13.75;3.78;;;;;;;;;;5002350;28;20390;-79
2024/02/16 04:13:45;;;;;;;14.38;4.00;;;;;;;;;;5000876;28;20037;-80
2024/02/16 04:16:12;;;;;;;13.15;3.60;;;;;;;;;;5009864;28;20046;-80
2024/02/16 04:18:38;;;;;;;15.52;3.83;;;;;;;;;;5002440;28;20033;-80
2024/02/16 04:21:05;;;;;;;16.30;4.10;;;;;;;;;;5004073;28;20116;-80
2024/02/16 04:23:31;;;;;;;15.70;3.53;;;;;;;;;;4999976;28;20034;-79
2024/02/16 04:25:57;;;;;;;;;;;;;;;;;;5005574;28;20153;-80
2024/02/16 04:28:24;;;;;;;18.52;4.20;;;;;;;;;;5009929;28;20491;-80
2024/02/16 04:30:50;;;;;;;17.13;4.20;;;;;;;;;;4999847;28;21047;-79
2024/02/16 04:33:17;;;;;;;15.98;4.28;;;;;;;;;;5008476;28;20041;-79
2024/02/16 04:35:46;;;;;;;19.88;4.30;;;;;;;;;;5006905;28;20112;-80
2024/02/16 04:38:13;;;;;;;16.20;3.85;;;;;;;;;;5004439;28;20135;-80
2024/02/16 04:40:39;;;;;;;15.23;4.30;;;;;;;;;;5015524;28;20444;-80
2024/02/16 04:43:05;;;;;;;;;;;;;;;;;;5009931;28;20536;-80
2024/02/16 04:45:31;;;;;;;13.70;3.80;;;;;;;;;;5010670;28;19909;-80
2024/02/16 04:47:59;;;;;;;17.48;4.03;;;;;;;;;;5011992;28;20532;-80
2024/02/16 04:50:25;;;;;;;16.52;3.90;;;;;;;;;;5021635;28;20032;-80
2024/02/16 04:52:51;;;;;;;12.63;3.65;;;;;;;;;;5004299;28;20049;-80
2024/02/16 04:55:19;;;;;;;16.52;4.10;;;;;;;;;;5024046;28;20235;-80
2024/02/16 04:57:45;;;;;;;13.75;3.85;;;;;;;;;;5007471;28;20040;-80
2024/02/16 05:00:11;;;;;;;;;;;;;;;;;;5009980;28;20054;-80
2024/02/16 05:02:37;;;;;;;13.63;3.67;;;;;;;;;;5007051;28;19913;-80
2024/02/16 05:05:03;;;;;;;13.98;3.70;;;;;;;;;;5007037;28;20025;-80
2024/02/16 05:07:31;;;;;;;15.43;3.85;;;;;;;;;;5004619;28;20277;-80
2024/02/16 05:09:58;;;;;;;15.27;3.78;;;;;;;;;;5012611;28;20028;-80
2024/02/16 05:12:25;;;;;;;14.15;3.80;;;;;;;;;;5010756;28;20034;-80
2024/02/16 05:14:54;;;;;;;15.90;4.00;;;;;;;;;;5021222;28;20040;-79
2024/02/16 05:17:20;;;;;;;15.63;4.47;;;;;;;;;;5041629;28;20045;-81
2024/02/16 05:19:47;;;;;;;16.00;4.25;;;;;;;;;;5024453;28;20033;-79
2024/02/16 05:22:13;;;;;;;14.52;4.25;;;;;;;;;;5013476;28;20017;-81
2024/02/16 05:24:40;;;;;;;14.93;3.88;;;;;;;;;;5009578;28;20029;-80
2024/02/16 05:27:06;;;;;;;13.25;4.15;;;;;;;;;;5019341;28;20182;-82
2024/02/16 05:29:32;;;;;;;15.80;4.20;;;;;;;;;;5023558;28;20040;-81
2024/02/16 05:31:58;;;;;;;;;;;;;;;;;;5030131;28;20044;-81
2024/02/16 05:34:25;;;;;;;13.93;3.97;;;;;;;;;;5013702;28;19912;-81
2024/02/16 05:36:51;;;;;;;14.88;4.68;;;;;;;;;;5013039;28;20033;-81
2024/02/16 05:39:26;;;;;;;14.77;4.65;;;;;;;;;;5015742;28;20052;-81
2024/02/16 05:41:52;;;;;;;15.05;4.80;;;;;;;;;;5014637;28;20034;-81
2024/02/16 05:44:18;;;;;;;14.50;4.32;;;;;;;;;;5018942;28;20025;-80
2024/02/16 05:46:45;;;;;;;13.85;3.83;;;;;;;;;;5026359;28;20044;-80
2024/02/16 05:49:11;;;;;;;17.50;5.10;;;;;;;;;;5012522;28;20029;-80
2024/02/16 05:51:39;;;;;;;12.15;3.63;;;;;;;;;;5027482;28;20029;-80
2024/02/16 05:54:05;;;;;;;13.25;4.53;;;;;;;;;;5030955;28;20032;-80
2024/02/16 05:56:33;;;;;;;;;;;;;;;;;;5018970;28;20036;-79
2024/02/16 05:59:00;;;;;;;15.65;4.43;;;;;;;;;;5017964;28;19917;-80
2024/02/16 06:01:27;;;;;;;12.95;4.80;;;;;;;;;;5014909;28;20639;-80
2024/02/16 06:03:53;;;;;;;16.73;7.25;;;;;;;;;;5015376;28;20500;-80
2024/02/16 06:06:19;;;;;;;25.92;10.00;;;;;;;;;;5014948;28;20037;-79
2024/02/16 06:08:46;;;;;;;22.25;11.40;;;;;;;;;;5025609;28;20033;-80
2024/02/16 06:11:12;;;;;;;21.33;9.00;;;;;;;;;;5007943;28;20045;-80
2024/02/16 06:13:39;;;;;;;21.73;9.93;;;;;;;;;;5012492;28;20484;-80
2024/02/16 06:16:08;;;;;;;19.80;7.35;;;;;;;;;;5012899;28;20119;-80
2024/02/16 06:18:35;;;;;;;15.38;6.15;;;;;;;;;;5011662;28;20033;-79
2024/02/16 06:21:01;;;;;;;17.77;6.13;;;;;;;;;;5016650;28;20025;-81
2024/02/16 06:23:27;;;;;;;16.33;5.60;;;;;;;;;;5006963;28;20048;-80
2024/02/16 06:25:53;;;;;;;21.13;5.90;;;;;;;;;;5027559;28;20044;-80
2024/02/16 06:28:19;;;;;;;15.75;5.47;;;;;;;;;;5030862;28;20086;-78
2024/02/16 06:30:46;;;;;;;;;;;;;;;;;;5031118;28;20551;-80
2024/02/16 06:33:13;;;;;;;18.33;5.20;;;;;;;;;;5031641;28;20376;-79
2024/02/16 06:35:39;;;;;;;16.30;4.68;;;;;;;;;;5030546;28;20665;-78
2024/02/16 06:38:06;;;;;;;15.57;4.93;;;;;;;;;;5018795;28;20131;-79
2024/02/16 06:40:32;;;;;;;16.10;5.55;;;;;;;;;;5017188;28;20042;-79
2024/02/16 06:42:58;;;;;;;22.08;5.53;;;;;;;;;;5014030;28;20082;-79
2024/02/16 06:45:25;;;;;;;;;;;;;;;;;;5022383;28;20037;-79
2024/02/16 06:47:51;;;;;;;18.40;5.22;;;;;;;;;;5026463;28;19920;-81
2024/02/16 06:50:17;;;;;;;17.70;5.40;;;;;;;;;;5032122;28;20013;-81
2024/02/16 06:52:43;;;;;;;20.50;5.72;;;;;;;;;;5031758;28;20045;-80
2024/02/16 06:55:10;;;;;;;17.95;5.70;;;;;;;;;;5028932;28;20056;-80
2024/02/16 06:57:36;;;;;;;17.60;6.30;;;;;;;;;;5022332;28;20045;-80
2024/02/16 07:00:03;;;;;;;18.50;6.32;;;;;;;;;;5022328;28;20038;-81
2024/02/16 07:02:29;;;;;;;19.90;5.78;;;;;;;;;;5025412;28;20037;-80
2024/02/16 07:04:55;;;;;;;16.73;5.47;;;;;;;;;;5025715;28;20048;-81
2024/02/16 07:07:21;;;;;;;17.85;6.18;;;;;;;;;;5035228;28;20029;-80
2024/02/16 07:09:47;;;;;;;15.73;5.13;;;;;;;;;;5029072;28;20041;-80
2024/02/16 07:12:13;;;;;;;16.63;5.57;;;;;;;;;;5029549;28;20016;-81
2024/02/16 07:14:39;;;;;;;;;;;;;;;;;;5030168;28;20056;-79
2024/02/16 07:17:09;;;;;;;15.25;5.03;;;;;;;;;;5040445;28;19904;-78
2024/02/16 07:19:35;;;;;;;18.90;5.55;;;;;;;;;;5035889;28;20040;-79
2024/02/16 07:22:01;;;;;;;;;;;;;;;;;;5030164;28;20025;-79
2024/02/16 07:24:27;;;;;;;18.38;5.18;;;;;;;;;;5025231;28;19920;-79
2024/02/16 07:26:53;;;;;;;20.08;6.07;;;;;;;;;;5024925;28;20021;-80
2024/02/16 07:29:19;;;;;;;;;;;;;;;;;;5019810;28;20022;-81
2024/02/16 07:31:45;;;;;;;19.02;5.60;;;;;;;;;;5020051;28;19909;-79
2024/02/16 07:34:11;;;;;;;;;;;;;;;;;;5021716;28;20348;-78
2024/02/16 07:36:37;;;;;;;18.17;5.97;;;;;;;;;;5012863;28;20422;-78
2024/02/16 07:39:04;;;;;;;;;;;;;;;;;;5016249;28;20571;-79
2024/02/16 07:41:31;;;;;;;20.55;6.40;;;;;;;;;;5018160;28;19917;-79
2024/02/16 07:43:57;;;;;;;21.42;6.47;;;;;;;;;;5016544;28;20034;-80
2024/02/16 07:46:23;;;;;;;20.40;6.97;;;;;;;;;;5019881;28;20045;-79
2024/02/16 07:48:49;;;;;;;21.67;6.38;;;;;;;;;;5019917;28;20040;-79
2024/02/16 07:51:15;;;;;;;;;;;;;;;;;;5020510;28;20038;-79
2024/02/16 07:53:44;;;;;;;17.27;6.22;;;;;;;;;;5021154;28;19970;-80
2024/02/16 07:56:10;;;;;;;22.38;7.07;;;;;;;;;;5013812;28;20545;-79
2024/02/16 07:58:36;;;;;;;21.02;6.38;;;;;;;;;;5012538;28;20021;-79
2024/02/16 08:01:03;;;;;;;21.02;6.47;;;;;;;;;;5022685;28;20025;-79
2024/02/16 08:03:30;;;;;;;17.58;5.95;;;;;;;;;;5028173;28;20096;-81
2024/02/16 08:05:56;;;;;;;18.67;5.78;;;;;;;;;;5033301;28;20022;-80
2024/02/16 08:08:23;;;;;;;22.02;6.72;;;;;;;;;;5024584;28;20700;-79
2024/02/16 08:10:51;;;;;;;18.92;6.25;;;;;;;;;;5016048;28;20054;-80
2024/02/16 08:13:18;;;;;;;19.77;6.65;;;;;;;;;;5018387;28;20042;-79
2024/02/16 08:15:44;;;;;;;19.98;6.88;;;;;;;;;;5026416;28;20038;-79
2024/02/16 08:18:11;;;;;;;;;;;;;;;;;;5017315;28;20016;-80
2024/02/16 08:20:39;;;;;;;25.75;8.10;;;;;;;;;;5017516;28;19923;-79
2024/02/16 08:26:00;;;;;;;21.98;8.52;;;;;;;;;;4977993;28;20327;-79
2024/02/16 08:28:26;;;;;;;22.48;8.45;;;;;;;;;;4972587;28;20046;-80
2024/02/16 08:30:52;;;;;;;;;;;;;;;;;;4961746;28;20114;-80
2024/02/16 08:33:18;;;;;;;23.10;8.73;;;;;;;;;;4975054;28;19956;-82
2024/02/16 08:35:44;;;;;;;22.85;8.70;;;;;;;;;;4960583;28;20041;-79
2024/02/16 08:38:11;;;;;;;26.73;8.35;;;;;;;;;;4957855;28;20609;-82
2024/02/16 08:40:37;;;;;;;18.35;7.18;;;;;;;;;;4954749;28;20114;-80
2024/02/16 08:43:07;;;;;;;21.63;8.57;;;;;;;;;;4953905;28;20101;-80
2024/02/16 08:45:34;;;;;;;31.98;9.55;;;;;;;;;;4933860;28;20030;-79
2024/02/16 08:48:03;;;;;;;18.50;8.05;;;;;;;;;;4951455;28;20106;-79
2024/02/16 08:50:30;;;;;;;25.58;8.07;;;;;;;;;;4950737;28;20047;-80
2024/02/16 08:52:56;;;;;;;25.05;8.93;;;;;;;;;;4953475;28;20050;-80
2024/02/16 08:55:23;;;;;;;21.70;7.03;;;;;;;;;;4934420;28;20056;-79
2024/02/16 08:57:49;;;;;;;19.98;6.75;;;;;;;;;;4940876;28;20042;-78
2024/02/16 09:00:16;;;;;;;18.05;6.72;;;;;;;;;;4951889;28;20051;-80
2024/02/16 09:02:42;;;;;;;21.42;5.65;;;;;;;;;;4976518;28;20037;-80
2024/02/16 09:05:12;;;;;;;20.08;6.30;;;;;;;;;;5008014;28;20561;-80
2024/02/16 09:07:38;;;;;;;19.92;6.10;;;;;;;;;;5004415;28;20121;-81
2024/02/16 09:10:04;;;;;;;;;;;;;;;;;;5008427;28;20034;-79
2024/02/16 09:12:30;;;;;;;18.48;6.75;;;;;;;;;;5004078;28;20644;-79
2024/02/16 09:15:00;;;;;;;19.63;6.53;;;;;;;;;;5002483;28;20085;-79
2024/02/16 09:17:27;;;;;;;21.08;6.47;;;;;;;;;;5002313;28;20037;-80
2024/02/16 09:19:53;;;;;;;;;;;;;;;;;;5000471;28;20696;-80
2024/02/16 09:22:19;;;;;;;19.88;6.60;;;;;;;;;;5004127;28;19941;-80
2024/02/16 09:24:47;;;;;;;18.35;6.43;;;;;;;;;;5003658;28;20025;-80
2024/02/16 09:27:13;;;;;;;19.75;6.35;;;;;;;;;;5010464;28;20030;-80
2024/02/16 09:29:40;;;;;;;;;;;;;;;;;;5007884;28;20028;-79
2024/02/16 09:32:07;;;;;;;16.80;6.70;;;;;;;;;;5005635;28;19914;-80
2024/02/16 09:34:34;;;;;;;18.00;6.95;;;;;;;;;;5006071;28;20105;-79
2024/02/16 09:37:03;;;;;;;19.17;6.50;;;;;;;;;;5006503;28;20030;-81
2024/02/16 09:39:30;;;;;;;18.25;6.68;;;;;;;;;;5005479;28;20140;-79
2024/02/16 09:42:01;;;;;;;17.55;6.22;;;;;;;;;;5003948;28;20025;-79
2024/02/16 09:44:30;;;;;;;21.40;7.20;;;;;;;;;;5005738;28;20030;-79
2024/02/16 09:46:57;;;;;;;18.20;6.03;;;;;;;;;;5003277;28;20216;-79
2024/02/16 09:49:25;;;;;;;19.13;6.55;;;;;;;;;;5001872;28;20068;-79
2024/02/16 09:51:53;;;;;;;19.15;6.93;;;;;;;;;;5006722;28;20069;-80
2024/02/16 09:54:20;;;;;;;17.58;6.70;;;;;;;;;;5003936;28;20034;-81
2024/02/16 09:56:47;;;;;;;15.95;5.57;;;;;;;;;;5004825;28;20109;-81
2024/02/16 09:59:13;;;;;;;21.33;6.68;;;;;;;;;;5007478;28;20030;-80
2024/02/16 10:01:39;;;;;;;16.75;6.80;;;;;;;;;;5009191;28;20752;-80
2024/02/16 10:04:09;;;;;;;18.88;6.07;;;;;;;;;;5007676;28;20026;-80
2024/02/16 10:06:50;;;;;;;19.27;6.78;;;;;;;;;;5006495;28;20083;-80
2024/02/16 10:09:26;;;;;;;21.35;6.93;;;;;;;;;;5005307;28;20091;-80
2024/02/16 10:11:54;;;;;;;19.17;6.40;;;;;;;;;;5005341;28;20037;-79
2024/02/16 10:14:21;;;;;;;20.27;5.80;;;;;;;;;;5011000;28;20611;-80
2024/02/16 10:16:49;;;;;;;20.40;6.10;;;;;;;;;;5003151;28;20045;-80
2024/02/16 10:19:19;;;;;;;18.52;5.07;;;;;;;;;;5009363;28;20038;-79
2024/02/16 10:21:46;;;;;;;18.10;4.95;;;;;;;;;;5009133;28;20047;-80
2024/02/16 10:24:14;;;;;;;16.90;4.80;;;;;;;;;;5009543;28;20771;-80
2024/02/16 10:26:42;;;;;;;21.80;5.38;;;;;;;;;;5001536;28;20034;-79
2024/02/16 10:29:14;;;;;;;16.45;4.75;;;;;;;;;;5006792;28;20030;-79
2024/02/16 10:31:40;;;;;;;17.38;5.50;;;;;;;;;;5009597;28;20041;-78
2024/02/16 10:34:09;;;;;;;13.20;4.60;;;;;;;;;;5012742;28;20025;-78
2024/02/16 10:36:39;;;;;;;21.17;5.88;;;;;;;;;;5012713;28;20091;-79
2024/02/16 10:39:07;;;;;;;20.23;5.93;;;;;;;;;;5016453;28;20045;-78
2024/02/16 10:41:37;;;;;;;18.00;4.85;;;;;;;;;;5030657;28;20033;-79
2024/02/16 10:44:05;;;;;;;16.30;5.32;;;;;;;;;;5028721;28;20092;-79
2024/02/16 10:46:32;;;;;;;17.98;4.80;;;;;;;;;;5032963;28;20096;-78
2024/02/16 10:48:59;;;;;;;15.30;4.60;;;;;;;;;;5031996;28;20120;-78
2024/02/16 10:51:45;;;;;;;17.88;4.97;;;;;;;;;;5014340;28;20122;-78
2024/02/16 10:54:14;;;;;;;18.15;4.85;;;;;;;;;;5005133;28;20532;-78
2024/02/16 10:56:41;;;;;;;18.13;4.85;;;;;;;;;;4994786;28;20515;-78
2024/02/16 10:59:10;;;;;;;18.13;5.18;;;;;;;;;;5031406;28;20040;-78
2024/02/16 11:01:43;;;;;;;16.55;4.82;;;;;;;;;;5022004;28;20025;-78
2024/02/16 11:04:20;;;;;;;25.67;5.07;;;;;;;;;;5030446;28;20052;-79
2024/02/16 11:06:47;;;;;;;16.42;4.68;;;;;;;;;;5027928;28;20029;-78
2024/02/16 11:09:29;;;;;;;16.88;4.50;;;;;;;;;;5013978;28;20036;-79
2024/02/16 11:11:55;;;;;;;15.95;4.13;;;;;;;;;;5028064;28;20074;-78
2024/02/16 11:14:25;;;;;;;17.27;4.07;;;;;;;;;;5028913;28;20122;-79
2024/02/16 11:16:56;;;;;;;23.92;5.72;;;;;;;;;;5027209;28;20030;-79
2024/02/16 11:19:22;;;;;;;18.92;4.75;;;;;;;;;;5007074;28;20110;-79
2024/02/16 11:21:58;;;;;;;20.02;4.85;;;;;;;;;;5031402;28;20040;-79
2024/02/16 11:25:00;;;;;;;17.98;4.40;;;;;;;;;;5027147;28;20136;-79
2024/02/16 11:27:27;;;;;;;17.50;4.82;;;;;;;;;;5009939;28;20025;-79
2024/02/16 11:29:55;;;;;;;16.70;4.32;;;;;;;;;;5011555;28;20036;-78
2024/02/16 11:32:22;;;;;;;16.02;4.40;;;;;;;;;;5015407;28;20099;-78
2024/02/16 11:34:48;;;;;;;17.67;4.60;;;;;;;;;;5009054;28;20654;-80
2024/02/16 11:37:15;;;;;;;16.50;4.22;;;;;;;;;;5030724;28;20056;-77
2024/02/16 11:39:44;;;;;;;18.13;5.03;;;;;;;;;;5027468;28;20236;-78
2024/02/16 11:42:12;;;;;;;21.73;4.63;;;;;;;;;;5017339;28;20059;-80
2024/02/16 11:44:42;;;;;;;13.25;3.85;;;;;;;;;;4997661;28;20121;-78
2024/02/16 11:47:12;;;;;;;18.77;4.10;;;;;;;;;;5013231;28;20116;-79
2024/02/16 11:49:39;;;;;;;19.05;4.18;;;;;;;;;;5030221;28;20059;-79
2024/02/16 11:52:06;;;;;;;21.88;4.90;;;;;;;;;;5032806;28;20478;-80
2024/02/16 11:54:32;;;;;;;16.17;4.70;;;;;;;;;;5028529;28;20032;-79
2024/02/16 11:56:58;;;;;;;15.57;4.63;;;;;;;;;;5010712;28;20022;-78
2024/02/16 11:59:25;;;;;;;17.08;4.78;;;;;;;;;;5013949;28;20041;-78
2024/02/16 12:01:57;;;;;;;16.27;4.95;;;;;;;;;;5028069;28;20877;-79
2024/02/16 12:04:27;;;;;;;16.45;4.40;;;;;;;;;;5017967;28;20041;-77
2024/02/16 12:07:03;;;;;;;19.05;4.28;;;;;;;;;;5047989;28;20038;-79
2024/02/16 12:09:34;;;;;;;18.88;4.60;;;;;;;;;;5031888;28;20043;-80
2024/02/16 12:12:00;;;;;;;20.05;4.53;;;;;;;;;;5029253;28;20104;-78
2024/02/16 12:14:27;;;;;;;19.08;4.43;;;;;;;;;;5037141;28;20033;-79
2024/02/16 12:16:57;;;;;;;17.15;4.35;;;;;;;;;;5041334;28;20033;-79
2024/02/16 12:19:24;;;;;;;17.27;5.38;;;;;;;;;;5049921;28;20029;-79
2024/02/16 12:21:53;;;;;;;22.63;6.85;;;;;;;;;;5053391;28;20758;-79
2024/02/16 12:24:21;;;;;;;20.13;5.32;;;;;;;;;;5038937;28;20025;-79
2024/02/16 12:26:48;;;;;;;16.50;5.30;;;;;;;;;;5052047;28;20081;-78
2024/02/16 12:29:15;;;;;;;16.20;4.53;;;;;;;;;;5050827;28;20072;-78
2024/02/16 12:31:44;;;;;;;18.92;5.32;;;;;;;;;;5030524;28;20041;-80
2024/02/16 12:34:10;;;;;;;15.43;4.38;;;;;;;;;;5045397;28;20327;-77
2024/02/16 12:36:37;;;;;;;17.45;5.78;;;;;;;;;;5038253;28;20049;-78
2024/02/16 12:39:03;;;;;;;18.98;5.30;;;;;;;;;;5047138;28;20120;-78
2024/02/16 12:41:51;;;;;;;16.08;4.78;;;;;;;;;;5026952;28;20040;-79
2024/02/16 12:44:17;;;;;;;19.30;4.50;;;;;;;;;;5023443;28;20029;-79
2024/02/16 12:46:44;;;;;;;16.92;5.00;;;;;;;;;;5034257;28;20040;-82
2024/02/16 12:49:12;;;;;;;19.80;5.35;;;;;;;;;;5038246;28;20524;-78
2024/02/16 12:51:39;;;;;;;18.95;5.07;;;;;;;;;;5037889;28;20032;-78
2024/02/16 12:54:06;;;;;;;17.13;5.10;;;;;;;;;;5035654;28;20075;-78
2024/02/16 12:56:33;;;;;;;18.10;4.60;;;;;;;;;;5021919;28;20028;-79
2024/02/16 12:59:01;;;;;;;19.45;4.78;;;;;;;;;;5041682;28;20029;-79
2024/02/16 13:01:29;;;;;;;20.27;5.40;;;;;;;;;;5036906;28;20036;-80
2024/02/16 13:03:55;;;;;;;17.90;5.97;;;;;;;;;;5033605;28;20041;-80
2024/02/16 13:06:21;;;;;;;;;;;;;;;;;;5032362;28;20600;-79
2024/02/16 13:08:48;;;;;;;14.18;4.45;;;;;;;;;;5029890;28;19978;-80
2024/02/16 13:11:14;;;;;;;24.48;6.25;;;;;;;;;;5020041;28;20051;-79
2024/02/16 13:13:40;;;;;;;19.20;6.18;;;;;;;;;;5018370;28;20056;-79
2024/02/16 13:16:06;;;;;;;19.17;5.68;;;;;;;;;;5028791;28;20040;-79
2024/02/16 13:18:33;;;;;;;20.20;5.88;;;;;;;;;;5031184;28;20060;-81
2024/02/16 13:20:59;;;;;;;17.98;6.05;;;;;;;;;;5026880;28;21336;-80
2024/02/16 13:23:28;;;;;;;23.17;5.75;;;;;;;;;;5028054;28;20037;-80
2024/02/16 13:25:54;;;;;;;21.40;5.95;;;;;;;;;;5013453;28;20060;-79
2024/02/16 13:28:22;;;;;;;20.52;6.20;;;;;;;;;;5020736;28;20036;-80
2024/02/16 13:30:48;;;;;;;18.13;5.25;;;;;;;;;;5029573;28;20044;-80
2024/02/16 13:33:14;;;;;;;17.23;5.57;;;;;;;;;;5031765;28;20080;-78
2024/02/16 13:35:40;;;;;;;17.60;4.88;;;;;;;;;;5014904;28;20037;-78
2024/02/16 13:38:06;;;;;;;19.02;5.45;;;;;;;;;;5030839;28;20444;-79
2024/02/16 13:40:35;;;;;;;16.98;5.70;;;;;;;;;;5028149;28;20447;-80
2024/02/16 13:43:03;;;;;;;17.75;6.75;;;;;;;;;;5029846;28;20021;-78
2024/02/16 13:45:48;;;;;;;22.13;9.27;;;;;;;;;;5011962;28;20040;-77
2024/02/16 13:48:15;;;;;;;21.45;7.43;;;;;;;;;;5012282;28;20036;-78
2024/02/16 13:50:41;;;;;;;17.52;6.40;;;;;;;;;;5007340;28;20060;-77
2024/02/16 13:53:08;;;;;;;14.90;4.97;;;;;;;;;;5015089;28;20425;-79
2024/02/16 13:55:34;;;;;;;14.45;4.57;;;;;;;;;;5014389;28;20076;-79
2024/02/16 13:58:00;;;;;;;16.70;5.18;;;;;;;;;;5017115;28;20753;-78
2024/02/16 14:00:26;;;;;;;14.43;4.43;;;;;;;;;;5027672;28;20115;-80
2024/02/16 14:02:53;;;;;;;13.68;3.95;;;;;;;;;;5008251;28;20389;-80
2024/02/16 14:05:19;;;;;;;14.60;4.22;;;;;;;;;;5020862;28;20543;-78
2024/02/16 14:07:45;;;;;;;14.68;3.78;;;;;;;;;;5025291;28;20044;-79
2024/02/16 14:10:11;;;;;;;13.48;4.28;;;;;;;;;;5025600;28;20045;-80
2024/02/16 14:12:38;;;;;;;16.25;3.85;;;;;;;;;;5010459;28;20414;-79
2024/02/16 14:15:04;;;;;;;13.43;3.70;;;;;;;;;;4999059;28;20128;-78
2024/02/16 14:17:30;;;;;;;13.75;3.65;;;;;;;;;;5008844;28;20090;-80
2024/02/16 14:19:57;;;;;;;14.10;4.22;;;;;;;;;;5009570;28;20025;-79
2024/02/16 14:22:24;;;;;;;13.20;3.85;;;;;;;;;;5024350;28;20035;-79
2024/02/16 14:24:52;;;;;;;14.75;5.00;;;;;;;;;;5017373;28;20827;-79
2024/02/16 14:27:18;;;;;;;17.35;4.40;;;;;;;;;;5024397;28;20583;-78
2024/02/16 14:29:45;;;;;;;16.85;4.78;;;;;;;;;;5006139;28;20125;-79
2024/02/16 14:32:11;;;;;;;18.02;5.32;;;;;;;;;;5011122;28;20028;-78
2024/02/16 14:34:38;;;;;;;17.05;4.65;;;;;;;;;;5005334;28;20031;-78
2024/02/16 14:37:04;;;;;;;19.05;4.55;;;;;;;;;;5019474;28;20057;-79
2024/02/16 14:39:30;;;;;;;18.38;5.60;;;;;;;;;;5024031;28;20187;-79
2024/02/16 14:41:57;;;;;;;22.52;7.82;;;;;;;;;;5009499;28;20029;-80
2024/02/16 14:44:22;;;;;;;;;;;;;;;;;;5004691;28;20036;-80
2024/02/16 14:46:49;;;;;;;25.55;15.68;;;;;;;;;;5009289;28;19967;-80